• 1385014 10153382300060425 128216538 n
  • 3
  • 6
  • 7
  • 1
  • 10
  • 未命名
  • 121
  • 55
  • 2
  • cargo

Click here and log in to see your monthly flight duties. 請按此登入個人班表區

Welcome aboard

Current Weather

[source: ADDS]
METAR
RCTP 310330Z 29011KT 6000 SCT018 BKN100 29/20 Q1014 NOSIG RMK A2996 =
TAF
TAF RCTP 302300Z 3100/0106 07005KT 9999 FEW025 TEMPO 3102/3109 29005KT BECMG 3116/3118 02010KT TEMPO 0100/0106 04015KT =